Weather at Bologna Guglielmo Marconi Airport

Public forecast

Using degrees Celsius for public forecast. Weather courtesy of forecast.io.

Current aviation weather report (METAR) for Bologna Guglielmo Marconi Airport

Retrieved 2020/10/27 23:20 UTC (0 seconds ago):

LIPE 272320Z 21003KT 160V240 CAVOK 09/08 Q1016

Aviation forecast (TAF) for Bologna Guglielmo Marconi Airport

Retrieved 2020/10/27 18:25 UTC (5 hours ago):

TAF LIPE 271700Z 2718/2818 VRB05KT 9999 FEW040